Upstream stations:
Downstream station:
SHEF ID: MRIT2 Lake Meredith
STATION TYPE: RESERVOIR
Flood Pool: Bottom = 2941.30, Top = 2965.00
ELEVATION STORAGE INFLOW RELEASE WIND-DIRWIND-SPEED
ft ac-ft cfs cfs deg mph
Ccp-Rev Ccp-Rev Rev-Regi Rev-Regi Ccp-Rev Ccp-Rev
(US/Central)
05/22 00:00 2883.40 203071 0 0 ---- ----
05/22 01:00 2883.37 202871 0 0 ---- ----
05/22 02:00 2883.35 202738 0 0 ---- ----
05/22 03:00 2883.32 202538 0 0 ---- ----
05/22 04:00 2883.35 202738 0 0 ---- ----
05/22 05:00 2883.35 202738 0 0 ---- ----
05/22 06:00 2883.34 202671 0 0 ---- ----
05/22 07:00 2883.32 202538 0 0 ---- ----
05/22 08:00 2883.34 202671 0 0 ---- ----
05/22 09:00 2883.35 202738 9 0 ---- ----
05/22 10:00 2883.35 202738 18 0 ---- ----
05/22 11:00 2883.34 202671 18 0 ---- ----
05/22 12:00 2883.36 202804 27 0 ---- ----
05/22 13:00 2883.35 202738 54 0 ---- ----
05/22 14:00 2883.37 202871 152 0 ---- ----
05/22 15:00 2883.36 202804 143 0 ---- ----
05/22 16:00 2883.38 202938 143 0 ---- ----
05/22 17:00 2883.37 202871 135 0 ---- ----
05/22 18:00 2883.38 202938 108 0 ---- ----
05/22 19:00 2883.37 202871 0 0 ---- ----
05/22 20:00 2883.37 202871 0 0 ---- ----
05/22 21:00 2883.37 202871 0 0 ---- ----
05/22 22:00 2883.36 202804 0 0 ---- ----
05/22 23:00 2883.37 202871 0 0 ---- ----